createdAt,value
2023-03-27T00:02:23.184Z,2.47
2023-03-27T00:04:50.764Z,2.70
2023-03-27T00:07:19.991Z,2.60
2023-03-27T00:09:46.938Z,2.50
2023-03-27T00:12:13.873Z,3.17
2023-03-27T00:14:41.358Z,2.60
2023-03-27T00:17:08.326Z,2.30
2023-03-27T00:19:36.432Z,2.80
2023-03-27T00:22:03.792Z,2.70
2023-03-27T00:24:30.764Z,2.30
2023-03-27T00:26:58.198Z,2.70
2023-03-27T00:29:25.178Z,2.97
2023-03-27T00:31:52.106Z,2.53
2023-03-27T00:34:18.972Z,2.00
2023-03-27T00:36:51.177Z,2.10
2023-03-27T00:39:19.216Z,2.67
2023-03-27T00:41:47.246Z,2.93
2023-03-27T00:44:25.173Z,3.10
2023-03-27T00:46:55.271Z,2.97
2023-03-27T00:49:23.924Z,4.00
2023-03-27T00:51:53.121Z,4.93
2023-03-27T00:54:26.613Z,4.03
2023-03-27T00:57:07.206Z,2.93
2023-03-27T00:59:39.346Z,2.13
2023-03-27T01:02:08.285Z,2.60
2023-03-27T01:04:41.260Z,3.43
2023-03-27T01:07:11.219Z,2.60
2023-03-27T01:09:39.107Z,2.43
2023-03-27T01:12:35.336Z,2.73
2023-03-27T01:15:39.394Z,2.90
2023-03-27T01:18:31.945Z,2.80
2023-03-27T01:21:38.556Z,2.73
2023-03-27T01:24:27.340Z,2.50
2023-03-27T01:27:02.054Z,2.63
2023-03-27T01:29:44.640Z,2.60
2023-03-27T01:32:32.864Z,2.80
2023-03-27T01:35:15.531Z,3.00
2023-03-27T01:38:14.671Z,2.53
2023-03-27T01:41:21.115Z,3.40
2023-03-27T01:43:59.912Z,2.50
2023-03-27T01:47:01.312Z,2.83
2023-03-27T01:49:43.328Z,2.50
2023-03-27T01:52:17.688Z,2.60
2023-03-27T01:54:55.744Z,2.90
2023-03-27T01:57:30.841Z,2.70
2023-03-27T02:00:21.922Z,3.23
2023-03-27T02:02:52.532Z,2.57
2023-03-27T02:05:42.331Z,2.40
2023-03-27T02:08:09.580Z,2.50
2023-03-27T02:10:44.931Z,2.67
2023-03-27T02:13:27.319Z,2.73
2023-03-27T02:15:58.398Z,3.33
2023-03-27T02:18:33.606Z,2.60
2023-03-27T02:21:02.476Z,3.20
2023-03-27T02:23:31.852Z,3.07
2023-03-27T02:25:59.899Z,2.87
2023-03-27T02:29:02.738Z,4.53
2023-03-27T02:31:53.486Z,3.20
2023-03-27T02:34:32.271Z,3.17
2023-03-27T02:37:16.297Z,3.13
2023-03-27T02:40:59.395Z,2.80
2023-03-27T02:44:04.716Z,2.53
2023-03-27T02:47:02.413Z,3.43
2023-03-27T02:49:37.267Z,3.23
2023-03-27T02:52:16.868Z,2.97
2023-03-27T02:54:50.943Z,3.13
2023-03-27T02:57:24.428Z,3.10
2023-03-27T03:00:37.516Z,2.60
2023-03-27T03:04:00.047Z,3.20
2023-03-27T03:06:47.332Z,3.07
2023-03-27T03:09:15.088Z,2.50
2023-03-27T03:11:53.637Z,3.30
2023-03-27T03:14:26.720Z,3.13
2023-03-27T03:16:53.757Z,3.40
2023-03-27T03:19:24.192Z,3.30
2023-03-27T03:21:51.300Z,3.40
2023-03-27T03:24:19.127Z,3.03
2023-03-27T03:26:49.960Z,3.30
2023-03-27T03:29:19.323Z,2.87
2023-03-27T03:32:06.413Z,3.37
2023-03-27T03:34:33.666Z,3.10
2023-03-27T03:37:01.080Z,2.80
2023-03-27T03:39:31.080Z,3.27
2023-03-27T03:41:58.030Z,3.00
2023-03-27T03:44:24.955Z,4.13
2023-03-27T03:46:52.123Z,3.70
2023-03-27T03:49:21.341Z,3.97
2023-03-27T03:52:03.488Z,3.50
2023-03-27T03:54:31.486Z,3.57
2023-03-27T03:56:58.568Z,4.00
2023-03-27T03:59:26.625Z,3.70
2023-03-27T04:02:12.433Z,3.83
2023-03-27T04:04:40.137Z,4.17
2023-03-27T04:07:11.382Z,4.00
2023-03-27T04:09:43.884Z,3.67
2023-03-27T04:12:26.223Z,3.63
2023-03-27T04:14:59.120Z,3.73
2023-03-27T04:17:45.981Z,4.27
2023-03-27T04:20:13.220Z,3.43
2023-03-27T04:22:48.690Z,3.43
2023-03-27T04:25:17.926Z,3.80
2023-03-27T04:27:45.797Z,2.90
2023-03-27T04:30:24.465Z,3.27
2023-03-27T04:33:18.394Z,3.23
2023-03-27T04:36:14.896Z,3.30
2023-03-27T04:38:53.258Z,3.13
2023-03-27T04:41:21.330Z,3.10
2023-03-27T04:43:48.300Z,3.30
2023-03-27T04:46:15.572Z,3.83
2023-03-27T04:48:43.647Z,3.53
2023-03-27T04:51:26.826Z,3.57
2023-03-27T04:53:56.461Z,3.93
2023-03-27T04:56:24.986Z,3.67
2023-03-27T04:58:54.561Z,3.70
2023-03-27T05:01:22.799Z,3.40
2023-03-27T05:04:08.405Z,3.83
2023-03-27T05:06:53.357Z,3.00
2023-03-27T05:09:21.427Z,3.80
2023-03-27T05:11:50.103Z,3.47
2023-03-27T05:14:23.437Z,3.30
2023-03-27T05:16:54.397Z,4.83
2023-03-27T05:19:23.319Z,3.10
2023-03-27T05:21:57.593Z,4.67
2023-03-27T05:24:24.579Z,8.37
2023-03-27T05:26:51.598Z,5.10
2023-03-27T05:29:18.924Z,3.47
2023-03-27T05:31:48.507Z,2.70
2023-03-27T05:34:38.718Z,3.60
2023-03-27T05:37:09.352Z,3.43
2023-03-27T05:39:54.290Z,3.10
2023-03-27T05:42:21.411Z,4.17
2023-03-27T05:44:48.719Z,3.53
2023-03-27T05:47:16.288Z,3.43
2023-03-27T05:49:44.032Z,3.30
2023-03-27T05:52:12.672Z,3.57
2023-03-27T05:54:41.969Z,3.50
2023-03-27T05:57:10.621Z,4.70
2023-03-27T05:59:39.721Z,3.77
2023-03-27T06:02:21.295Z,3.50
2023-03-27T06:04:59.093Z,2.83
2023-03-27T06:07:30.394Z,2.83
2023-03-27T06:10:03.046Z,3.10
2023-03-27T06:12:33.515Z,2.30
2023-03-27T06:15:09.732Z,2.00
2023-03-27T06:18:09.793Z,3.13
2023-03-27T06:20:40.650Z,2.20
2023-03-27T06:23:09.276Z,2.43
2023-03-27T06:25:39.340Z,2.33
2023-03-27T06:28:09.654Z,2.53
2023-03-27T06:30:55.059Z,2.67
2023-03-27T06:33:29.898Z,2.33
2023-03-27T06:36:02.575Z,2.40
2023-03-27T06:38:32.903Z,2.90
2023-03-27T06:41:01.366Z,2.83
2023-03-27T06:43:52.348Z,2.33
2023-03-27T06:46:45.539Z,2.27
2023-03-27T06:49:27.989Z,2.33
2023-03-27T06:51:54.963Z,2.03
2023-03-27T06:54:22.349Z,2.17
2023-03-27T06:56:53.245Z,2.05
2023-03-27T06:59:21.620Z,2.13
2023-03-27T07:01:52.713Z,2.08
2023-03-27T07:04:22.474Z,2.50
2023-03-27T07:07:05.872Z,1.85
2023-03-27T07:09:39.408Z,1.80
2023-03-27T07:12:09.205Z,2.10
2023-03-27T07:14:37.896Z,2.20
2023-03-27T07:17:05.614Z,1.77
2023-03-27T07:20:03.959Z,2.17
2023-03-27T07:22:31.284Z,1.85
2023-03-27T07:25:05.382Z,2.10
2023-03-27T07:27:38.912Z,2.10
2023-03-27T07:30:08.550Z,2.05
2023-03-27T07:32:37.962Z,2.45
2023-03-27T07:35:08.400Z,2.05
2023-03-27T07:38:03.266Z,2.05
2023-03-27T07:40:40.041Z,2.40
2023-03-27T07:43:45.956Z,2.20
2023-03-27T07:46:13.792Z,2.08
2023-03-27T07:48:41.231Z,2.30
2023-03-27T07:51:15.299Z,1.88
2023-03-27T07:53:43.645Z,2.13
2023-03-27T07:56:23.572Z,2.92
2023-03-27T07:59:05.885Z,2.03
2023-03-27T08:01:34.148Z,2.40
2023-03-27T08:04:02.257Z,2.33
2023-03-27T08:06:29.590Z,2.08
2023-03-27T08:08:58.655Z,1.77
2023-03-27T08:11:30.999Z,2.05
2023-03-27T08:13:59.497Z,2.20
2023-03-27T08:16:30.245Z,2.22
2023-03-27T08:19:01.121Z,2.20
2023-03-27T08:21:31.931Z,5.22
2023-03-27T08:24:01.387Z,2.30
2023-03-27T08:26:49.350Z,2.10
2023-03-27T08:29:16.496Z,1.85
2023-03-27T08:31:47.076Z,1.73
2023-03-27T08:34:15.084Z,1.85
2023-03-27T08:36:47.358Z,2.33
2023-03-27T08:39:15.848Z,2.17
2023-03-27T08:41:55.678Z,1.70
2023-03-27T08:44:32.004Z,1.98
2023-03-27T08:47:18.704Z,1.80
2023-03-27T08:49:59.131Z,2.03
2023-03-27T08:52:33.033Z,1.73
2023-03-27T08:55:13.700Z,1.98
2023-03-27T08:57:50.316Z,2.00
2023-03-27T09:00:25.553Z,1.85
2023-03-27T09:03:40.780Z,2.15
2023-03-27T09:06:20.077Z,2.00
2023-03-27T09:09:09.377Z,2.20
2023-03-27T09:11:58.749Z,3.08
2023-03-27T09:14:40.555Z,2.10
2023-03-27T09:17:18.548Z,1.80
2023-03-27T09:20:08.831Z,1.90
2023-03-27T09:22:44.216Z,1.70
2023-03-27T09:25:20.393Z,2.10
2023-03-27T09:27:53.612Z,3.03
2023-03-27T09:30:41.006Z,2.60
2023-03-27T09:33:13.915Z,2.28
2023-03-27T09:35:43.970Z,1.88
2023-03-27T09:38:36.905Z,1.85
2023-03-27T09:41:18.903Z,2.20
2023-03-27T09:44:01.056Z,2.00
2023-03-27T09:46:29.252Z,1.88
2023-03-27T09:49:17.085Z,1.40
2023-03-27T09:51:51.586Z,1.58
2023-03-27T09:54:54.962Z,1.73
2023-03-27T09:57:40.897Z,1.53
2023-03-27T10:00:33.638Z,1.98
2023-03-27T10:03:28.796Z,1.50
2023-03-27T10:06:10.981Z,1.58
2023-03-27T10:08:56.937Z,2.00
2023-03-27T10:11:33.716Z,1.60
2023-03-27T10:14:17.992Z,1.40
2023-03-27T10:16:47.689Z,1.50
2023-03-27T10:19:23.218Z,1.52
2023-03-27T10:21:52.171Z,1.50
2023-03-27T10:24:33.246Z,1.48
2023-03-27T10:27:28.700Z,1.67
2023-03-27T10:30:36.070Z,1.60
2023-03-27T10:33:40.687Z,1.35
2023-03-27T10:36:38.462Z,1.40
2023-03-27T10:39:13.959Z,1.35
2023-03-27T10:41:55.531Z,1.45
2023-03-27T10:44:25.864Z,1.70
2023-03-27T10:46:56.809Z,1.30
2023-03-27T10:49:44.974Z,1.30
2023-03-27T10:52:46.834Z,1.67
2023-03-27T10:55:41.600Z,1.33
2023-03-27T10:58:33.888Z,1.50
2023-03-27T11:01:24.986Z,1.25
2023-03-27T11:03:58.047Z,1.55
2023-03-27T11:06:34.084Z,1.33
2023-03-27T11:09:24.415Z,1.48
2023-03-27T11:12:11.508Z,1.10
2023-03-27T11:15:04.378Z,1.42
2023-03-27T11:17:41.070Z,1.42
2023-03-27T11:20:44.177Z,1.33
2023-03-27T11:23:39.310Z,1.85
2023-03-27T11:26:35.784Z,1.50
2023-03-27T11:29:23.026Z,1.80
2023-03-27T11:31:55.859Z,1.42
2023-03-27T11:34:53.942Z,1.50
2023-03-27T11:37:49.861Z,1.35
2023-03-27T11:40:28.472Z,1.40
2023-03-27T11:42:59.943Z,1.35
2023-03-27T11:45:32.634Z,1.33
2023-03-27T11:48:15.070Z,1.52
2023-03-27T11:51:01.544Z,1.50
2023-03-27T11:54:03.513Z,1.70
2023-03-27T11:57:02.874Z,1.98
2023-03-27T11:59:57.076Z,1.55
2023-03-27T12:02:53.611Z,1.40
2023-03-27T12:05:52.457Z,1.85
2023-03-27T12:08:25.452Z,1.20
2023-03-27T12:10:57.251Z,1.50
2023-03-27T12:14:18.432Z,1.50
2023-03-27T12:16:58.696Z,1.38
2023-03-27T12:19:50.877Z,1.48
2023-03-27T12:22:38.983Z,1.10
2023-03-27T12:25:42.057Z,1.33
2023-03-27T12:28:45.388Z,1.38
2023-03-27T12:31:32.542Z,1.33
2023-03-27T12:34:12.405Z,1.70
2023-03-27T12:36:48.106Z,3.50
2023-03-27T12:39:21.492Z,1.63
2023-03-27T12:41:49.296Z,1.77
2023-03-27T12:44:32.008Z,1.63
2023-03-27T12:47:29.438Z,1.80
2023-03-27T12:50:26.331Z,2.03
2023-03-27T12:52:54.878Z,1.17
2023-03-27T12:55:36.868Z,1.47
2023-03-27T12:58:35.158Z,1.50
2023-03-27T13:01:23.086Z,1.30
2023-03-27T13:04:15.770Z,1.30
2023-03-27T13:07:12.822Z,1.70
2023-03-27T13:10:08.928Z,1.50
2023-03-27T13:12:47.301Z,1.60
2023-03-27T13:15:25.482Z,1.60
2023-03-27T13:18:22.361Z,1.43
2023-03-27T13:21:01.305Z,1.33
2023-03-27T13:23:59.657Z,1.20
2023-03-27T13:26:34.673Z,1.00
2023-03-27T13:29:02.822Z,1.13
2023-03-27T13:31:57.691Z,1.40
2023-03-27T13:35:09.809Z,1.03
2023-03-27T13:37:48.140Z,1.37
2023-03-27T13:40:27.290Z,1.20
2023-03-27T13:43:22.278Z,1.20
2023-03-27T13:45:58.867Z,1.20
2023-03-27T13:48:57.802Z,1.40
2023-03-27T13:51:58.159Z,1.50
2023-03-27T13:54:27.888Z,1.30
2023-03-27T13:57:32.458Z,1.30
2023-03-27T14:00:18.072Z,1.57
2023-03-27T14:03:15.768Z,1.40
2023-03-27T14:06:15.399Z,1.50
2023-03-27T14:08:59.984Z,1.20
2023-03-27T14:12:08.144Z,1.60
2023-03-27T14:15:19.655Z,1.30
2023-03-27T14:18:29.986Z,1.40
2023-03-27T14:21:00.697Z,1.20
2023-03-27T14:23:50.807Z,1.93
2023-03-27T14:26:37.842Z,1.50
2023-03-27T14:29:05.290Z,1.70
2023-03-27T14:31:44.388Z,1.50
2023-03-27T14:34:47.248Z,1.50
2023-03-27T14:37:44.917Z,1.03
2023-03-27T14:40:42.115Z,1.20
2023-03-27T14:43:12.451Z,1.20
2023-03-27T14:45:41.048Z,1.17
2023-03-27T14:48:33.707Z,1.40
2023-03-27T14:51:06.232Z,1.87
2023-03-27T14:53:44.638Z,1.40
2023-03-27T14:56:29.806Z,1.30
2023-03-27T14:59:11.927Z,1.33
2023-03-27T15:01:54.331Z,1.60
2023-03-27T15:04:21.516Z,1.40
2023-03-27T15:06:49.942Z,1.30
2023-03-27T15:09:37.356Z,1.40
2023-03-27T15:12:37.575Z,2.10
2023-03-27T15:15:47.862Z,1.60
2023-03-27T15:18:43.034Z,1.70
2023-03-27T15:21:20.159Z,1.60
2023-03-27T15:24:01.408Z,1.30
2023-03-27T15:26:31.565Z,1.33
2023-03-27T15:29:04.121Z,1.90
2023-03-27T15:31:34.008Z,1.53
2023-03-27T15:34:08.188Z,1.57
2023-03-27T15:36:37.554Z,1.40
2023-03-27T15:39:06.924Z,1.60
2023-03-27T15:41:34.971Z,1.63
2023-03-27T15:44:16.233Z,2.23
2023-03-27T15:46:56.425Z,1.40
2023-03-27T15:49:23.375Z,1.50
2023-03-27T15:51:50.969Z,1.40
2023-03-27T15:54:23.992Z,1.23
2023-03-27T15:56:51.686Z,1.87
2023-03-27T15:59:36.667Z,1.63
2023-03-27T16:02:21.894Z,1.23
2023-03-27T16:04:58.820Z,1.27
2023-03-27T16:07:43.897Z,1.07
2023-03-27T16:10:12.301Z,1.30
2023-03-27T16:12:48.135Z,1.60
2023-03-27T16:15:29.952Z,1.20
2023-03-27T16:17:58.763Z,1.27
2023-03-27T16:20:25.979Z,1.60
2023-03-27T16:22:53.008Z,1.30
2023-03-27T16:25:19.886Z,1.40
2023-03-27T16:27:50.283Z,1.20
2023-03-27T16:30:43.237Z,1.27
2023-03-27T16:33:17.683Z,1.20
2023-03-27T16:35:45.863Z,1.60
2023-03-27T16:38:14.005Z,1.37
2023-03-27T16:40:41.538Z,1.83
2023-03-27T16:43:08.519Z,1.70
2023-03-27T16:45:36.311Z,1.93
2023-03-27T16:48:04.004Z,1.27
2023-03-27T16:50:31.263Z,1.90
2023-03-27T16:52:58.425Z,1.63
2023-03-27T16:55:25.549Z,1.37
2023-03-27T16:57:54.117Z,4.83
2023-03-27T17:00:21.408Z,3.10
2023-03-27T17:02:48.514Z,3.00
2023-03-27T17:05:15.807Z,7.23
2023-03-27T17:07:44.043Z,11.83
2023-03-27T17:10:11.065Z,10.70
2023-03-27T17:12:38.119Z,3.67
2023-03-27T17:15:06.278Z,2.27
2023-03-27T17:17:33.286Z,1.30
2023-03-27T17:20:00.910Z,3.73
2023-03-27T17:22:29.976Z,1.43
2023-03-27T17:24:58.038Z,1.20
2023-03-27T17:27:26.608Z,1.20
2023-03-27T17:29:55.879Z,1.30
2023-03-27T17:32:24.812Z,1.37
2023-03-27T17:34:52.307Z,1.70
2023-03-27T17:37:20.981Z,1.70
2023-03-27T17:39:48.698Z,1.70
2023-03-27T17:42:16.154Z,2.20
2023-03-27T17:44:44.956Z,2.63
2023-03-27T17:47:12.783Z,3.40
2023-03-27T17:49:40.842Z,2.03
2023-03-27T17:52:11.277Z,2.70
2023-03-27T17:54:39.153Z,2.23
2023-03-27T17:57:06.764Z,1.90
2023-03-27T17:59:34.134Z,2.53
2023-03-27T18:02:01.295Z,1.77
2023-03-27T18:04:28.896Z,1.43
2023-03-27T18:06:55.856Z,2.50
2023-03-27T18:09:23.102Z,1.70
2023-03-27T18:11:50.234Z,1.80
2023-03-27T18:14:17.213Z,1.93
2023-03-27T18:16:44.775Z,2.00
2023-03-27T18:19:13.483Z,2.07
2023-03-27T18:21:40.574Z,1.80
2023-03-27T18:24:07.856Z,2.70
2023-03-27T18:26:35.426Z,2.27
2023-03-27T18:29:02.724Z,2.23
2023-03-27T18:31:30.031Z,2.33
2023-03-27T18:33:58.288Z,2.67
2023-03-27T18:36:25.312Z,2.27
2023-03-27T18:38:52.213Z,2.30
2023-03-27T18:41:19.190Z,2.17
2023-03-27T18:43:46.191Z,2.10
2023-03-27T18:46:16.982Z,2.10
2023-03-27T18:48:45.604Z,2.23
2023-03-27T18:51:12.947Z,2.50
2023-03-27T18:53:40.186Z,2.03
2023-03-27T18:56:08.153Z,1.93
2023-03-27T18:58:36.129Z,1.80
2023-03-27T19:01:08.912Z,2.40
2023-03-27T19:03:37.269Z,2.03
2023-03-27T19:06:07.138Z,1.97
2023-03-27T19:08:37.521Z,2.67
2023-03-27T19:11:09.151Z,2.27
2023-03-27T19:14:02.687Z,2.00
2023-03-27T19:16:33.103Z,1.97
2023-03-27T19:19:21.660Z,2.23
2023-03-27T19:21:51.495Z,2.60
2023-03-27T19:24:44.408Z,2.03
2023-03-27T19:27:24.042Z,2.60
2023-03-27T19:29:55.193Z,2.00
2023-03-27T19:32:24.286Z,2.20
2023-03-27T19:34:51.431Z,3.23
2023-03-27T19:37:18.345Z,2.53
2023-03-27T19:39:45.665Z,2.10
2023-03-27T19:42:12.596Z,2.10
2023-03-27T19:44:40.692Z,2.30
2023-03-27T19:47:08.856Z,2.80
2023-03-27T19:49:36.721Z,2.30
2023-03-27T19:52:20.140Z,2.13
2023-03-27T19:54:47.213Z,2.17
2023-03-27T19:57:14.927Z,2.07
2023-03-27T19:59:42.122Z,3.03
2023-03-27T20:02:11.968Z,2.20
2023-03-27T20:04:40.411Z,2.20
2023-03-27T20:07:07.712Z,2.17
2023-03-27T20:09:34.930Z,2.17
2023-03-27T20:12:03.133Z,2.53
2023-03-27T20:14:30.476Z,2.10
2023-03-27T20:16:57.375Z,2.00
2023-03-27T20:19:28.981Z,2.80
2023-03-27T20:21:57.712Z,1.80
2023-03-27T20:24:24.788Z,2.20
2023-03-27T20:26:57.320Z,1.87
2023-03-27T20:29:26.053Z,2.23
2023-03-27T20:31:53.139Z,2.37
2023-03-27T20:34:22.561Z,2.00
2023-03-27T20:36:53.015Z,2.10
2023-03-27T20:39:53.992Z,2.03
2023-03-27T20:42:25.435Z,2.43
2023-03-27T20:44:58.113Z,2.23
2023-03-27T20:47:25.184Z,2.43
2023-03-27T20:49:52.198Z,2.63
2023-03-27T20:52:19.791Z,2.27
2023-03-27T20:54:47.778Z,2.03
2023-03-27T20:57:16.853Z,2.90
2023-03-27T20:59:46.211Z,2.47
2023-03-27T21:02:17.604Z,2.23
2023-03-27T21:04:44.862Z,2.00
2023-03-27T21:07:11.848Z,2.00
2023-03-27T21:09:38.965Z,1.93
2023-03-27T21:12:06.355Z,1.80
2023-03-27T21:14:33.409Z,2.30
2023-03-27T21:17:00.659Z,2.30
2023-03-27T21:19:27.699Z,2.53
2023-03-27T21:21:55.527Z,3.10
2023-03-27T21:24:22.505Z,6.50
2023-03-27T21:26:49.491Z,3.20
2023-03-27T21:29:16.815Z,3.50
2023-03-27T21:31:43.795Z,3.73
2023-03-27T21:34:11.037Z,4.90
2023-03-27T21:36:38.699Z,3.53
2023-03-27T21:39:05.766Z,2.13
2023-03-27T21:41:32.999Z,3.43
2023-03-27T21:44:00.042Z,2.37
2023-03-27T21:46:26.944Z,2.73
2023-03-27T21:48:53.939Z,2.53
2023-03-27T21:51:21.015Z,4.03
2023-03-27T21:53:48.066Z,3.10
2023-03-27T21:56:15.014Z,2.63
2023-03-27T21:58:41.964Z,3.17
2023-03-27T22:01:08.933Z,2.80
2023-03-27T22:03:36.146Z,2.17
2023-03-27T22:06:12.330Z,1.77
2023-03-27T22:08:42.680Z,2.43
2023-03-27T22:11:11.845Z,3.20
2023-03-27T22:13:39.382Z,2.97
2023-03-27T22:16:12.043Z,2.77
2023-03-27T22:18:39.547Z,2.07
2023-03-27T22:21:14.219Z,3.00
2023-03-27T22:23:41.291Z,2.47
2023-03-27T22:26:08.215Z,2.87
2023-03-27T22:28:35.211Z,2.33
2023-03-27T22:31:03.004Z,2.27
2023-03-27T22:33:30.729Z,4.83
2023-03-27T22:35:58.046Z,3.40
2023-03-27T22:38:25.403Z,2.70
2023-03-27T22:40:52.450Z,3.57
2023-03-27T22:43:22.446Z,2.40
2023-03-27T22:45:50.568Z,2.93
2023-03-27T22:48:17.618Z,2.00
2023-03-27T22:50:45.861Z,2.57
2023-03-27T22:53:12.744Z,2.20
2023-03-27T22:55:39.689Z,2.07
2023-03-27T22:58:06.597Z,1.97
2023-03-27T23:00:33.508Z,2.67
2023-03-27T23:03:00.563Z,1.97
2023-03-27T23:05:27.506Z,2.33
2023-03-27T23:07:54.377Z,4.73
2023-03-27T23:10:21.347Z,3.67
2023-03-27T23:12:48.302Z,2.37
2023-03-27T23:15:15.378Z,2.97
2023-03-27T23:17:42.421Z,2.93
2023-03-27T23:20:09.548Z,2.13
2023-03-27T23:22:37.309Z,2.13
2023-03-27T23:25:04.546Z,3.10
2023-03-27T23:27:31.759Z,2.03
2023-03-27T23:29:58.775Z,2.20
2023-03-27T23:32:28.889Z,1.83
2023-03-27T23:34:55.979Z,1.60
2023-03-27T23:37:22.975Z,1.80
2023-03-27T23:39:49.835Z,2.30
2023-03-27T23:42:16.737Z,2.50
2023-03-27T23:44:43.585Z,2.77
2023-03-27T23:47:10.619Z,2.33
2023-03-27T23:49:37.528Z,1.90
2023-03-27T23:52:04.467Z,1.97
2023-03-27T23:54:31.315Z,2.67
2023-03-27T23:56:58.359Z,2.40
2023-03-27T23:59:25.259Z,2.33
